Manhattan, KS (66506)

12:30 AM CDT on April 01, 2015 (GMT -0500)
Riley County Courthouse Plaza | | Change Station
CLOSE
Current Station
Personal Weather Station
Location: Manhattan, KS
Elevation: 1043 ft
Nearby Weather Stations

Elev 1043 ft 39.18 °N, 96.56 °W | Updated 14 minutes ago

Clear
Clear
60.4 °F
Feels Like 60.4 °F
N
2.0
Wind Variable Wind from NNE
Gusts 8.0 mph

Today
High -- | Low -- °F
--% Chance of Precip.
Yesterday
High -- | Low -- °F
Precip. -- in
7:11 AM 7:49 PM
Waxing Gibbous, 91% visible
Pressure 29.87 in
Visibility 10.0 miles
Clouds Clear
Dew Point 34 °F
Humidity 38%
Rainfall 0.00 in
Snow Depth Not available.
UV 0 out of 12
Pollen 9.40 out of 12
Air Quality Not available.
Flu Activity Not available.
METAR KMHK 010452Z AUTO 00000KT 10SM CLR 14/02 A2988 RMK AO2 SLP113 T01440017 TSNO

More Conditions Fewer Conditions

Pressure 29.87 in
Visibility 10.0 miles
Clouds Clear
Dew Point 34 °F
Humidity 38%
Rainfall 0.00 in
Snow Depth Not available.
UV 0 out of 12
Pollen 9.40 out of 12
Air Quality Not available.
Flu Activity Not available.
METAR KMHK 010452Z AUTO 00000KT 10SM CLR 14/02 A2988 RMK AO2 SLP113 T01440017 TSNO

More Conditions Fewer Conditions

10-Day Weather Forecast

Almanac

Astronomy

Apr. 01, 2015 Rise Set
Actual Time
Civil Twilight
Nautical Twilight
Astronomical Twilight
Moon
Length of Visible Light
Length of Day
Tomorrow will be .
, % of the Moon is Illuminated

Today's Extremes

State Highs State Lows

Community

WunderPhotos

Upload Photos

1,809,919 photos uploaded!

WunderBlogs® & News

Nearby

Air Quality

  Air Quality AQ Index Pollutant
Not available.

Snow Depth

Station Depth Elevation

Earthquake Activity

City Distance Mag. Time & Date
Minimum magnitude displayed is 2.5.

Coastal Water Temperatures

Place Temperature

Stations

Nearby Weather Stations

Station Location Temp. Windchill Dew Point Humidity Wind Precip. Elev Updated Type